createdAt,value
2022-07-25T00:00:18.061Z,2.15
2022-07-25T00:03:06.569Z,4.78
2022-07-25T00:05:58.053Z,2.50
2022-07-25T00:08:44.857Z,4.28
2022-07-25T00:11:31.772Z,5.18
2022-07-25T00:14:18.512Z,3.08
2022-07-25T00:17:05.192Z,3.28
2022-07-25T00:19:53.235Z,6.13
2022-07-25T00:22:39.990Z,3.40
2022-07-25T00:25:26.929Z,5.80
2022-07-25T00:28:14.564Z,5.80
2022-07-25T00:31:01.261Z,4.37
2022-07-25T00:33:48.411Z,3.33
2022-07-25T00:36:36.646Z,3.20
2022-07-25T00:39:23.614Z,5.25
2022-07-25T00:42:10.496Z,5.65
2022-07-25T00:44:57.116Z,3.60
2022-07-25T00:47:43.887Z,3.58
2022-07-25T00:50:31.140Z,3.88
2022-07-25T00:53:19.743Z,4.67
2022-07-25T00:56:07.633Z,5.22
2022-07-25T00:58:54.827Z,3.97
2022-07-25T01:01:42.624Z,3.58
2022-07-25T01:04:29.822Z,5.18
2022-07-25T01:07:16.536Z,5.25
2022-07-25T01:10:05.152Z,8.95
2022-07-25T01:12:53.125Z,6.35
2022-07-25T01:15:40.587Z,6.50
2022-07-25T01:18:27.700Z,5.25
2022-07-25T01:21:15.844Z,5.00
2022-07-25T01:24:02.469Z,5.20
2022-07-25T01:26:49.485Z,6.43
2022-07-25T01:29:36.391Z,4.80
2022-07-25T01:32:23.191Z,4.55
2022-07-25T01:35:10.350Z,4.32
2022-07-25T01:37:58.447Z,5.93
2022-07-25T01:40:45.911Z,6.95
2022-07-25T01:43:32.636Z,5.53
2022-07-25T01:46:19.555Z,5.82
2022-07-25T01:49:06.868Z,5.88
2022-07-25T01:51:53.564Z,8.57
2022-07-25T01:54:41.946Z,4.50
2022-07-25T01:57:31.003Z,4.97
2022-07-25T02:00:18.953Z,5.07
2022-07-25T02:03:23.523Z,6.75
2022-07-25T02:06:10.434Z,7.05
2022-07-25T02:08:57.206Z,8.07
2022-07-25T02:11:45.449Z,5.95
2022-07-25T02:14:33.122Z,7.00
2022-07-25T02:17:20.101Z,5.75
2022-07-25T02:20:07.791Z,9.35
2022-07-25T02:22:54.337Z,6.05
2022-07-25T02:25:41.565Z,8.37
2022-07-25T02:28:29.692Z,6.35
2022-07-25T02:31:16.588Z,7.53
2022-07-25T02:34:04.423Z,9.07
2022-07-25T02:36:51.868Z,7.05
2022-07-25T02:39:39.043Z,7.28
2022-07-25T02:42:25.719Z,9.02
2022-07-25T02:45:14.032Z,5.60
2022-07-25T02:48:00.992Z,7.63
2022-07-25T02:50:48.002Z,5.30
2022-07-25T02:53:55.924Z,7.78
2022-07-25T02:56:41.319Z,5.50
2022-07-25T02:59:32.221Z,8.70
2022-07-25T03:02:20.773Z,6.47
2022-07-25T03:05:08.189Z,8.45
2022-07-25T03:07:54.976Z,7.75
2022-07-25T03:10:42.053Z,7.03
2022-07-25T03:13:29.120Z,9.70
2022-07-25T03:16:16.374Z,7.53
2022-07-25T03:19:04.775Z,8.05
2022-07-25T03:21:51.789Z,6.13
2022-07-25T03:24:38.826Z,7.75
2022-07-25T03:27:25.675Z,7.50
2022-07-25T03:30:13.163Z,6.05
2022-07-25T03:32:59.691Z,6.13
2022-07-25T03:35:47.886Z,5.80
2022-07-25T03:38:34.792Z,8.18
2022-07-25T03:41:21.789Z,7.53
2022-07-25T03:44:08.905Z,8.02
2022-07-25T03:46:56.229Z,7.70
2022-07-25T03:49:43.175Z,8.20
2022-07-25T03:52:31.329Z,8.27
2022-07-25T03:55:18.231Z,9.85
2022-07-25T03:58:05.390Z,6.72
2022-07-25T04:00:52.442Z,7.75
2022-07-25T04:03:39.545Z,8.53
2022-07-25T04:06:28.021Z,8.20
2022-07-25T04:09:17.035Z,7.43
2022-07-25T04:12:04.217Z,7.65
2022-07-25T04:14:50.859Z,8.00
2022-07-25T04:17:39.673Z,7.55
2022-07-25T04:20:26.770Z,15.40
2022-07-25T04:23:13.546Z,7.82
2022-07-25T04:26:01.824Z,6.82
2022-07-25T04:28:49.610Z,11.77
2022-07-25T04:31:36.737Z,7.40
2022-07-25T04:34:23.345Z,8.95
2022-07-25T04:37:10.272Z,9.70
2022-07-25T04:39:57.319Z,9.98
2022-07-25T04:42:45.581Z,12.82
2022-07-25T04:45:32.841Z,8.77
2022-07-25T04:48:19.615Z,11.77
2022-07-25T04:51:06.305Z,10.50
2022-07-25T04:53:53.194Z,9.45
2022-07-25T04:56:39.833Z,10.10
2022-07-25T04:59:27.799Z,9.93
2022-07-25T05:02:14.462Z,8.73
2022-07-25T05:05:01.782Z,13.10
2022-07-25T05:07:50.796Z,8.43
2022-07-25T05:10:37.691Z,7.35
2022-07-25T05:13:24.726Z,8.70
2022-07-25T05:16:12.723Z,17.30
2022-07-25T05:18:59.936Z,8.10
2022-07-25T05:21:46.680Z,7.88
2022-07-25T05:24:35.216Z,8.43
2022-07-25T05:27:22.384Z,9.18
2022-07-25T05:30:10.976Z,9.68
2022-07-25T05:32:59.171Z,9.52
2022-07-25T05:35:46.183Z,8.95
2022-07-25T05:38:33.406Z,8.23
2022-07-25T05:41:20.182Z,6.53
2022-07-25T05:44:07.260Z,8.85
2022-07-25T05:46:54.335Z,6.38
2022-07-25T05:49:42.583Z,7.55
2022-07-25T05:52:29.191Z,6.95
2022-07-25T05:55:15.988Z,9.88
2022-07-25T05:58:02.976Z,8.43
2022-07-25T06:00:50.869Z,6.57
2022-07-25T06:03:37.937Z,6.88
2022-07-25T06:06:26.294Z,8.48
2022-07-25T06:09:13.178Z,6.97
2022-07-25T06:12:01.432Z,7.25
2022-07-25T06:14:49.424Z,7.80
2022-07-25T06:17:37.153Z,6.30
2022-07-25T06:20:23.956Z,6.85
2022-07-25T06:23:12.169Z,6.55
2022-07-25T06:25:58.918Z,6.00
2022-07-25T06:28:46.415Z,5.88
2022-07-25T06:31:33.311Z,5.22
2022-07-25T06:34:20.261Z,5.53
2022-07-25T06:37:07.153Z,6.78
2022-07-25T06:39:55.535Z,5.75
2022-07-25T06:42:42.479Z,6.57
2022-07-25T06:45:29.126Z,5.10
2022-07-25T06:48:16.105Z,7.72
2022-07-25T06:51:02.632Z,6.22
2022-07-25T06:53:49.590Z,5.13
2022-07-25T06:56:37.574Z,7.93
2022-07-25T06:59:24.187Z,7.22
2022-07-25T07:02:12.617Z,6.57
2022-07-25T07:04:59.397Z,6.63
2022-07-25T07:07:48.015Z,6.37
2022-07-25T07:10:35.430Z,6.32
2022-07-25T07:13:24.593Z,6.07
2022-07-25T07:16:12.137Z,6.45
2022-07-25T07:18:59.578Z,7.80
2022-07-25T07:21:46.580Z,5.28
2022-07-25T07:24:33.753Z,7.18
2022-07-25T07:27:23.462Z,7.13
2022-07-25T07:30:14.713Z,6.57
2022-07-25T07:33:01.497Z,6.13
2022-07-25T07:35:48.238Z,5.53
2022-07-25T07:38:35.275Z,5.68
2022-07-25T07:41:22.139Z,7.60
2022-07-25T07:44:09.004Z,6.30
2022-07-25T07:46:57.136Z,10.73
2022-07-25T07:49:48.374Z,12.93
2022-07-25T07:52:37.201Z,5.53
2022-07-25T07:55:41.849Z,6.40
2022-07-25T07:58:29.755Z,7.05
2022-07-25T08:01:16.716Z,6.47
2022-07-25T08:04:05.271Z,4.47
2022-07-25T08:06:52.157Z,5.17
2022-07-25T08:09:38.795Z,4.55
2022-07-25T08:12:25.760Z,6.43
2022-07-25T08:15:12.953Z,4.03
2022-07-25T08:18:00.353Z,2.67
2022-07-25T08:20:48.528Z,5.20
2022-07-25T08:23:35.713Z,4.45
2022-07-25T08:26:22.641Z,4.75
2022-07-25T08:29:19.384Z,4.93
2022-07-25T08:32:07.187Z,3.95
2022-07-25T08:34:54.290Z,6.32
2022-07-25T08:37:42.647Z,4.93
2022-07-25T08:40:30.324Z,5.05
2022-07-25T08:43:17.634Z,4.68
2022-07-25T08:46:06.930Z,3.88
2022-07-25T08:48:54.258Z,6.85
2022-07-25T08:51:41.465Z,5.00
2022-07-25T08:54:29.386Z,4.90
2022-07-25T08:57:16.591Z,4.75
2022-07-25T09:00:04.190Z,4.10
2022-07-25T09:02:54.548Z,3.78
2022-07-25T09:05:41.796Z,4.55
2022-07-25T09:08:28.524Z,5.20
2022-07-25T09:11:27.574Z,4.57
2022-07-25T09:14:15.478Z,3.80
2022-07-25T09:17:07.609Z,5.38
2022-07-25T09:20:12.184Z,2.90
2022-07-25T09:23:00.917Z,6.30
2022-07-25T09:25:47.838Z,3.10
2022-07-25T09:28:41.217Z,2.70
2022-07-25T09:31:34.883Z,1.33
2022-07-25T09:34:32.063Z,0.88
2022-07-25T09:37:20.206Z,1.20
2022-07-25T09:40:14.755Z,1.60
2022-07-25T09:43:01.873Z,1.35
2022-07-25T09:45:52.676Z,1.10
2022-07-25T09:48:41.884Z,0.77
2022-07-25T09:51:29.019Z,0.90
2022-07-25T09:54:16.030Z,3.03
2022-07-25T09:57:02.762Z,1.80
2022-07-25T09:59:50.069Z,1.30
2022-07-25T10:02:42.246Z,0.70
2022-07-25T10:05:32.782Z,1.48
2022-07-25T10:08:20.548Z,1.90
2022-07-25T10:11:09.137Z,0.57
2022-07-25T10:13:57.093Z,2.75
2022-07-25T10:16:48.014Z,1.17
2022-07-25T10:19:49.237Z,1.90
2022-07-25T10:22:56.868Z,0.50
2022-07-25T10:25:49.004Z,2.30
2022-07-25T10:28:38.189Z,2.50
2022-07-25T10:31:27.758Z,1.63
2022-07-25T10:34:14.840Z,0.70
2022-07-25T10:37:12.508Z,0.65
2022-07-25T10:39:59.447Z,0.60
2022-07-25T10:42:46.742Z,0.73
2022-07-25T10:45:41.097Z,1.70
2022-07-25T10:48:30.019Z,0.90
2022-07-25T10:51:16.758Z,1.15
2022-07-25T10:54:15.702Z,2.67
2022-07-25T10:57:02.954Z,2.17
2022-07-25T10:59:50.185Z,0.70
2022-07-25T11:02:37.143Z,1.87
2022-07-25T11:05:24.026Z,1.73
2022-07-25T11:08:21.693Z,0.95
2022-07-25T11:11:11.037Z,2.17
2022-07-25T11:13:58.077Z,0.50
2022-07-25T11:16:45.849Z,3.45
2022-07-25T11:19:32.886Z,2.20
2022-07-25T11:22:19.710Z,1.60
2022-07-25T11:25:12.047Z,1.50
2022-07-25T11:28:01.091Z,1.00
2022-07-25T11:30:47.901Z,2.55
2022-07-25T11:33:38.684Z,2.28
2022-07-25T11:36:26.094Z,5.80
2022-07-25T11:39:16.974Z,3.05
2022-07-25T11:42:07.539Z,1.50
2022-07-25T11:44:56.205Z,2.80
2022-07-25T11:47:43.056Z,2.13
2022-07-25T11:50:31.124Z,0.80
2022-07-25T11:53:19.768Z,1.85
2022-07-25T11:56:39.816Z,1.40
2022-07-25T11:59:19.125Z,3.03
2022-07-25T12:02:07.291Z,2.55
2022-07-25T12:04:58.059Z,3.07
2022-07-25T12:07:46.171Z,2.38
2022-07-25T12:10:33.937Z,1.20
2022-07-25T12:13:24.334Z,2.65
2022-07-25T12:16:11.084Z,3.00
2022-07-25T12:18:59.007Z,2.67
2022-07-25T12:21:45.664Z,1.90
2022-07-25T12:24:32.519Z,8.57
2022-07-25T12:27:19.458Z,4.63
2022-07-25T12:30:07.566Z,2.53
2022-07-25T12:32:54.628Z,4.72
2022-07-25T12:35:43.282Z,2.50
2022-07-25T12:38:30.096Z,2.55
2022-07-25T12:41:18.098Z,2.72
2022-07-25T12:44:05.301Z,4.03
2022-07-25T12:46:52.203Z,2.00
2022-07-25T12:49:38.902Z,2.00
2022-07-25T12:52:27.167Z,3.42
2022-07-25T12:55:15.652Z,1.48
2022-07-25T12:58:02.891Z,7.45
2022-07-25T13:00:49.929Z,3.63
2022-07-25T13:03:37.224Z,0.93
2022-07-25T13:06:23.890Z,3.65
2022-07-25T13:09:12.054Z,3.92
2022-07-25T13:11:58.804Z,1.67
2022-07-25T13:14:45.737Z,4.90
2022-07-25T13:17:33.616Z,1.70
2022-07-25T13:20:20.428Z,5.65
2022-07-25T13:23:07.445Z,2.00
2022-07-25T13:25:55.629Z,4.43
2022-07-25T13:28:42.453Z,4.17
2022-07-25T13:31:30.127Z,3.97
2022-07-25T13:34:17.295Z,7.63
2022-07-25T13:37:04.510Z,4.15
2022-07-25T13:39:51.252Z,2.75
2022-07-25T13:42:39.896Z,1.98
2022-07-25T13:45:26.875Z,4.47
2022-07-25T13:48:30.879Z,0.83
2022-07-25T13:51:18.164Z,1.98
2022-07-25T13:54:05.531Z,1.92
2022-07-25T13:56:52.516Z,2.17
2022-07-25T13:59:40.795Z,4.70
2022-07-25T14:02:28.095Z,2.90
2022-07-25T14:05:15.261Z,6.47
2022-07-25T14:08:02.131Z,1.77
2022-07-25T14:10:48.887Z,3.80
2022-07-25T14:13:35.969Z,4.65
2022-07-25T14:16:23.821Z,2.35
2022-07-25T14:19:11.080Z,2.80
2022-07-25T14:21:58.345Z,4.68
2022-07-25T14:24:45.364Z,2.92
2022-07-25T14:27:32.133Z,4.07
2022-07-25T14:30:19.426Z,3.10
2022-07-25T14:33:07.432Z,4.57
2022-07-25T14:35:54.125Z,8.40
2022-07-25T14:38:41.005Z,3.15
2022-07-25T14:41:27.920Z,0.77
2022-07-25T14:44:14.527Z,4.97
2022-07-25T14:47:01.423Z,2.22
2022-07-25T14:49:50.152Z,4.95
2022-07-25T14:52:36.853Z,4.05
2022-07-25T14:55:25.709Z,5.03
2022-07-25T14:58:13.776Z,4.75
2022-07-25T15:01:00.760Z,3.08
2022-07-25T15:03:49.465Z,2.70
2022-07-25T15:06:37.500Z,1.25
2022-07-25T15:09:24.312Z,2.05
2022-07-25T15:12:16.200Z,4.30
2022-07-25T15:15:03.611Z,5.43
2022-07-25T15:17:50.488Z,9.65
2022-07-25T15:20:37.169Z,3.42
2022-07-25T15:23:27.732Z,1.30
2022-07-25T15:26:16.583Z,2.85
2022-07-25T15:29:04.868Z,4.03
2022-07-25T15:31:52.584Z,2.38
2022-07-25T15:34:39.469Z,2.27
2022-07-25T15:37:26.176Z,6.28
2022-07-25T15:40:15.034Z,4.43
2022-07-25T15:43:02.082Z,1.10
2022-07-25T15:45:49.203Z,2.63
2022-07-25T15:48:36.100Z,4.40
2022-07-25T15:51:23.410Z,7.68
2022-07-25T15:54:10.452Z,2.63
2022-07-25T15:56:58.384Z,4.65
2022-07-25T15:59:44.972Z,4.32
2022-07-25T16:02:31.570Z,1.98
2022-07-25T16:05:18.292Z,6.13
2022-07-25T16:08:05.171Z,6.03
2022-07-25T16:10:52.780Z,3.72
2022-07-25T16:13:41.860Z,4.25
2022-07-25T16:16:28.896Z,3.97
2022-07-25T16:19:15.581Z,3.03
2022-07-25T16:22:02.631Z,2.63
2022-07-25T16:24:49.343Z,3.20
2022-07-25T16:27:36.678Z,4.03
2022-07-25T16:30:25.822Z,3.13
2022-07-25T16:33:12.791Z,4.10
2022-07-25T16:35:59.361Z,5.07
2022-07-25T16:38:47.647Z,4.90
2022-07-25T16:41:34.567Z,2.90
2022-07-25T16:44:23.406Z,4.05
2022-07-25T16:47:11.676Z,1.07
2022-07-25T16:49:58.422Z,1.58
2022-07-25T16:52:45.378Z,4.38
2022-07-25T16:55:31.974Z,3.25
2022-07-25T16:58:19.602Z,4.70
2022-07-25T17:01:06.785Z,4.72
2022-07-25T17:03:55.180Z,4.18
2022-07-25T17:06:42.876Z,2.70
2022-07-25T17:09:29.505Z,1.73
2022-07-25T17:12:17.405Z,3.80
2022-07-25T17:15:04.584Z,5.72
2022-07-25T17:17:51.230Z,2.13
2022-07-25T17:20:39.353Z,3.50
2022-07-25T17:23:26.535Z,4.22
2022-07-25T17:26:13.141Z,1.63
2022-07-25T17:28:59.960Z,1.38
2022-07-25T17:31:47.156Z,1.65
2022-07-25T17:34:34.464Z,3.00
2022-07-25T17:37:24.201Z,1.92
2022-07-25T17:40:11.689Z,2.88
2022-07-25T17:42:58.686Z,4.88
2022-07-25T17:45:45.359Z,3.25
2022-07-25T17:48:32.070Z,5.53
2022-07-25T17:51:19.269Z,4.05
2022-07-25T17:54:07.738Z,1.92
2022-07-25T17:56:55.000Z,3.45
2022-07-25T17:59:41.959Z,2.80
2022-07-25T18:02:28.923Z,3.05
2022-07-25T18:05:15.900Z,0.65
2022-07-25T18:08:02.908Z,4.13
2022-07-25T18:10:51.669Z,2.00
2022-07-25T18:13:38.607Z,3.75
2022-07-25T18:16:25.223Z,4.82
2022-07-25T18:19:12.442Z,5.07
2022-07-25T18:21:59.168Z,1.60
2022-07-25T18:24:45.761Z,2.20
2022-07-25T18:27:33.884Z,3.03
2022-07-25T18:30:20.707Z,4.00
2022-07-25T18:33:08.098Z,3.40
2022-07-25T18:35:54.888Z,3.47
2022-07-25T18:38:41.874Z,1.42
2022-07-25T18:41:30.304Z,1.65
2022-07-25T18:44:19.139Z,2.30
2022-07-25T18:47:06.863Z,4.15
2022-07-25T18:49:54.307Z,0.57
2022-07-25T18:52:41.285Z,1.20
2022-07-25T18:55:28.255Z,1.10
2022-07-25T18:58:15.953Z,2.05
2022-07-25T19:01:04.404Z,4.15
2022-07-25T19:03:51.093Z,2.40
2022-07-25T19:06:38.105Z,6.13
2022-07-25T19:09:25.850Z,3.08
2022-07-25T19:12:12.313Z,5.85
2022-07-25T19:14:59.126Z,4.40
2022-07-25T19:17:47.305Z,3.75
2022-07-25T19:20:34.367Z,5.78
2022-07-25T19:23:21.396Z,5.93
2022-07-25T19:26:08.504Z,3.80
2022-07-25T19:28:55.632Z,3.13
2022-07-25T19:31:42.540Z,3.83
2022-07-25T19:34:30.709Z,3.40
2022-07-25T19:37:17.785Z,3.60
2022-07-25T19:40:06.238Z,3.40
2022-07-25T19:42:52.807Z,6.97
2022-07-25T19:45:39.567Z,4.53
2022-07-25T19:48:26.710Z,5.20
2022-07-25T19:51:14.672Z,6.13
2022-07-25T19:54:03.345Z,0.82
2022-07-25T19:56:50.474Z,1.27
2022-07-25T19:59:37.352Z,2.25
2022-07-25T20:02:24.457Z,5.65
2022-07-25T20:05:12.283Z,5.07
2022-07-25T20:08:00.487Z,4.78
2022-07-25T20:10:48.304Z,5.10
2022-07-25T20:13:35.413Z,5.87
2022-07-25T20:16:22.474Z,5.85
2022-07-25T20:19:11.109Z,4.30
2022-07-25T20:21:58.400Z,3.85
2022-07-25T20:24:46.711Z,11.17
2022-07-25T20:27:33.768Z,5.47
2022-07-25T20:30:20.437Z,1.88
2022-07-25T20:33:09.081Z,3.40
2022-07-25T20:35:57.508Z,4.40
2022-07-25T20:38:44.528Z,4.55
2022-07-25T20:41:32.594Z,4.68
2022-07-25T20:44:19.481Z,1.90
2022-07-25T20:47:06.589Z,3.78
2022-07-25T20:49:53.398Z,4.15
2022-07-25T20:52:40.071Z,8.00
2022-07-25T20:55:28.375Z,3.85
2022-07-25T20:58:16.604Z,8.63
2022-07-25T21:01:03.140Z,7.50
2022-07-25T21:03:52.057Z,5.88
2022-07-25T21:06:38.753Z,8.02
2022-07-25T21:09:28.484Z,3.17
2022-07-25T21:12:19.133Z,8.00
2022-07-25T21:15:08.201Z,9.13
2022-07-25T21:17:55.156Z,4.40
2022-07-25T21:20:42.209Z,2.05
2022-07-25T21:23:29.203Z,7.95
2022-07-25T21:26:17.018Z,5.40
2022-07-25T21:29:03.924Z,5.03
2022-07-25T21:31:52.133Z,2.75
2022-07-25T21:34:41.077Z,3.92
2022-07-25T21:37:27.947Z,6.03
2022-07-25T21:40:14.843Z,3.00
2022-07-25T21:43:01.783Z,2.67
2022-07-25T21:45:51.335Z,4.88
2022-07-25T21:48:57.203Z,9.25
2022-07-25T21:51:44.632Z,2.55
2022-07-25T21:54:31.680Z,3.28
2022-07-25T21:57:18.736Z,2.25
2022-07-25T22:00:06.722Z,5.25
2022-07-25T22:03:00.715Z,5.88
2022-07-25T22:05:48.988Z,4.88
2022-07-25T22:08:35.993Z,6.68
2022-07-25T22:11:38.323Z,3.00
2022-07-25T22:14:30.021Z,6.97
2022-07-25T22:17:16.743Z,3.77
2022-07-25T22:20:03.964Z,2.97
2022-07-25T22:22:52.092Z,7.65
2022-07-25T22:25:38.827Z,2.13
2022-07-25T22:28:25.535Z,8.90
2022-07-25T22:31:13.265Z,2.67
2022-07-25T22:34:00.281Z,4.03
2022-07-25T22:36:46.931Z,3.03
2022-07-25T22:39:35.091Z,4.18
2022-07-25T22:42:21.593Z,3.47
2022-07-25T22:45:08.955Z,3.70
2022-07-25T22:47:56.298Z,7.63
2022-07-25T22:50:43.240Z,3.80
2022-07-25T22:53:29.812Z,3.40
2022-07-25T22:56:17.874Z,5.75
2022-07-25T22:59:05.403Z,4.40
2022-07-25T23:01:52.364Z,4.55
2022-07-25T23:04:39.304Z,5.67
2022-07-25T23:07:26.457Z,7.13
2022-07-25T23:10:13.267Z,3.40
2022-07-25T23:13:01.658Z,2.53
2022-07-25T23:15:50.067Z,2.60
2022-07-25T23:18:38.330Z,5.60
2022-07-25T23:21:25.266Z,5.63
2022-07-25T23:24:12.281Z,3.05
2022-07-25T23:26:59.238Z,7.80
2022-07-25T23:29:47.585Z,2.67
2022-07-25T23:32:35.169Z,2.50
2022-07-25T23:35:22.129Z,3.65
2022-07-25T23:38:09.023Z,7.63
2022-07-25T23:40:55.953Z,3.57
2022-07-25T23:43:57.693Z,8.50
2022-07-25T23:46:47.898Z,6.90
2022-07-25T23:49:35.628Z,4.47
2022-07-25T23:52:22.508Z,6.20
2022-07-25T23:55:10.267Z,6.03
2022-07-25T23:57:57.185Z,4.78
